sensor_id;sensor_type;location;lat;lon;timestamp;P1;durP1;ratioP1;P2;durP2;ratioP2
4698;SDS011;33708;49.466;11.176;2023-02-01T00:00:23;11.93;;;5.33;;
4698;SDS011;33708;49.466;11.176;2023-02-01T00:02:48;15.63;;;5.83;;
4698;SDS011;33708;49.466;11.176;2023-02-01T00:05:14;16.10;;;5.50;;
4698;SDS011;33708;49.466;11.176;2023-02-01T00:07:39;13.40;;;5.70;;
4698;SDS011;33708;49.466;11.176;2023-02-01T00:10:05;13.33;;;6.10;;
4698;SDS011;33708;49.466;11.176;2023-02-01T00:12:32;12.10;;;5.77;;
4698;SDS011;33708;49.466;11.176;2023-02-01T00:14:58;17.83;;;6.90;;
4698;SDS011;33708;49.466;11.176;2023-02-01T00:17:24;17.17;;;7.27;;
4698;SDS011;33708;49.466;11.176;2023-02-01T00:19:49;15.00;;;7.00;;
4698;SDS011;33708;49.466;11.176;2023-02-01T00:22:15;12.73;;;5.63;;
4698;SDS011;33708;49.466;11.176;2023-02-01T00:24:41;16.03;;;7.50;;
4698;SDS011;33708;49.466;11.176;2023-02-01T00:27:06;15.20;;;6.33;;
4698;SDS011;33708;49.466;11.176;2023-02-01T00:29:32;14.33;;;6.90;;
4698;SDS011;33708;49.466;11.176;2023-02-01T00:31:58;12.80;;;5.77;;
4698;SDS011;33708;49.466;11.176;2023-02-01T00:34:23;13.90;;;6.47;;
4698;SDS011;33708;49.466;11.176;2023-02-01T00:36:49;13.63;;;6.33;;
4698;SDS011;33708;49.466;11.176;2023-02-01T00:39:15;13.17;;;5.90;;
4698;SDS011;33708;49.466;11.176;2023-02-01T00:41:41;15.73;;;6.13;;
4698;SDS011;33708;49.466;11.176;2023-02-01T00:44:06;13.37;;;6.03;;
4698;SDS011;33708;49.466;11.176;2023-02-01T00:46:32;15.17;;;6.90;;
4698;SDS011;33708;49.466;11.176;2023-02-01T00:48:58;14.63;;;6.80;;
4698;SDS011;33708;49.466;11.176;2023-02-01T00:51:25;12.90;;;6.80;;
4698;SDS011;33708;49.466;11.176;2023-02-01T00:53:52;19.03;;;6.70;;
4698;SDS011;33708;49.466;11.176;2023-02-01T00:56:18;14.37;;;6.00;;
4698;SDS011;33708;49.466;11.176;2023-02-01T00:58:44;14.93;;;5.83;;
4698;SDS011;33708;49.466;11.176;2023-02-01T01:01:12;14.13;;;6.23;;
4698;SDS011;33708;49.466;11.176;2023-02-01T01:03:43;13.40;;;6.00;;
4698;SDS011;33708;49.466;11.176;2023-02-01T01:06:11;14.40;;;6.00;;
4698;SDS011;33708;49.466;11.176;2023-02-01T01:08:39;13.20;;;5.93;;
4698;SDS011;33708;49.466;11.176;2023-02-01T01:11:07;19.20;;;6.93;;
4698;SDS011;33708;49.466;11.176;2023-02-01T01:13:40;15.87;;;7.00;;
4698;SDS011;33708;49.466;11.176;2023-02-01T01:16:07;16.50;;;7.00;;
4698;SDS011;33708;49.466;11.176;2023-02-01T01:18:34;12.70;;;6.23;;
4698;SDS011;33708;49.466;11.176;2023-02-01T01:21:00;16.60;;;7.10;;
4698;SDS011;33708;49.466;11.176;2023-02-01T01:23:26;19.80;;;6.90;;
4698;SDS011;33708;49.466;11.176;2023-02-01T01:25:52;13.40;;;5.47;;
4698;SDS011;33708;49.466;11.176;2023-02-01T01:28:19;12.73;;;6.03;;
4698;SDS011;33708;49.466;11.176;2023-02-01T01:30:44;16.00;;;6.30;;
4698;SDS011;33708;49.466;11.176;2023-02-01T01:33:10;13.80;;;6.50;;
4698;SDS011;33708;49.466;11.176;2023-02-01T01:35:35;13.60;;;6.27;;
4698;SDS011;33708;49.466;11.176;2023-02-01T01:38:01;13.20;;;6.17;;
4698;SDS011;33708;49.466;11.176;2023-02-01T01:40:28;14.43;;;5.90;;
4698;SDS011;33708;49.466;11.176;2023-02-01T01:42:54;17.60;;;6.43;;
4698;SDS011;33708;49.466;11.176;2023-02-01T01:47:57;12.13;;;5.90;;
4698;SDS011;33708;49.466;11.176;2023-02-01T01:50:33;12.83;;;6.10;;
4698;SDS011;33708;49.466;11.176;2023-02-01T01:53:04;12.80;;;5.80;;
4698;SDS011;33708;49.466;11.176;2023-02-01T01:55:33;14.33;;;6.53;;
4698;SDS011;33708;49.466;11.176;2023-02-01T01:58:02;14.90;;;6.23;;
4698;SDS011;33708;49.466;11.176;2023-02-01T02:00:31;15.30;;;6.03;;
4698;SDS011;33708;49.466;11.176;2023-02-01T02:02:58;12.33;;;5.80;;
4698;SDS011;33708;49.466;11.176;2023-02-01T02:05:30;14.90;;;6.00;;
4698;SDS011;33708;49.466;11.176;2023-02-01T02:07:57;14.73;;;6.20;;
4698;SDS011;33708;49.466;11.176;2023-02-01T02:10:25;13.17;;;6.47;;
4698;SDS011;33708;49.466;11.176;2023-02-01T02:13:11;14.40;;;5.93;;
4698;SDS011;33708;49.466;11.176;2023-02-01T02:15:45;13.30;;;5.53;;
4698;SDS011;33708;49.466;11.176;2023-02-01T02:18:26;14.97;;;6.40;;
4698;SDS011;33708;49.466;11.176;2023-02-01T02:21:10;14.80;;;6.10;;
4698;SDS011;33708;49.466;11.176;2023-02-01T02:27:00;17.00;;;5.00;;
4698;SDS011;33708;49.466;11.176;2023-02-01T02:35:02;11.30;;;4.70;;
4698;SDS011;33708;49.466;11.176;2023-02-01T02:40:32;11.67;;;4.57;;
4698;SDS011;33708;49.466;11.176;2023-02-01T02:43:10;11.27;;;5.07;;
4698;SDS011;33708;49.466;11.176;2023-02-01T02:46:04;12.37;;;4.50;;
4698;SDS011;33708;49.466;11.176;2023-02-01T02:54:33;13.57;;;5.60;;
4698;SDS011;33708;49.466;11.176;2023-02-01T02:57:13;12.50;;;5.90;;
4698;SDS011;33708;49.466;11.176;2023-02-01T03:00:19;13.00;;;6.60;;
4698;SDS011;33708;49.466;11.176;2023-02-01T03:03:07;12.73;;;5.30;;
4698;SDS011;33708;49.466;11.176;2023-02-01T03:05:51;13.27;;;6.17;;
4698;SDS011;33708;49.466;11.176;2023-02-01T03:08:21;12.37;;;5.80;;
4698;SDS011;33708;49.466;11.176;2023-02-01T03:15:53;14.83;;;6.27;;
4698;SDS011;33708;49.466;11.176;2023-02-01T03:18:45;16.73;;;6.30;;
4698;SDS011;33708;49.466;11.176;2023-02-01T03:21:22;12.70;;;6.73;;
4698;SDS011;33708;49.466;11.176;2023-02-01T03:23:52;16.97;;;7.10;;
4698;SDS011;33708;49.466;11.176;2023-02-01T03:26:21;18.63;;;7.43;;
4698;SDS011;33708;49.466;11.176;2023-02-01T03:29:10;11.87;;;5.60;;
4698;SDS011;33708;49.466;11.176;2023-02-01T03:31:39;16.07;;;6.00;;
4698;SDS011;33708;49.466;11.176;2023-02-01T03:34:04;12.47;;;6.10;;
4698;SDS011;33708;49.466;11.176;2023-02-01T03:36:31;13.57;;;6.70;;
4698;SDS011;33708;49.466;11.176;2023-02-01T03:39:08;13.43;;;6.87;;
4698;SDS011;33708;49.466;11.176;2023-02-01T03:41:42;13.53;;;6.23;;
4698;SDS011;33708;49.466;11.176;2023-02-01T03:49:27;14.67;;;7.90;;
4698;SDS011;33708;49.466;11.176;2023-02-01T03:51:58;14.43;;;6.10;;
4698;SDS011;33708;49.466;11.176;2023-02-01T03:54:25;15.20;;;7.07;;
4698;SDS011;33708;49.466;11.176;2023-02-01T03:56:53;14.20;;;7.30;;
4698;SDS011;33708;49.466;11.176;2023-02-01T03:59:22;14.90;;;7.17;;
4698;SDS011;33708;49.466;11.176;2023-02-01T04:01:49;19.30;;;7.50;;
4698;SDS011;33708;49.466;11.176;2023-02-01T04:04:14;14.63;;;7.87;;
4698;SDS011;33708;49.466;11.176;2023-02-01T04:06:45;17.53;;;8.07;;
4698;SDS011;33708;49.466;11.176;2023-02-01T04:09:12;14.03;;;7.80;;
4698;SDS011;33708;49.466;11.176;2023-02-01T04:11:37;16.67;;;7.90;;
4698;SDS011;33708;49.466;11.176;2023-02-01T04:14:03;19.00;;;7.60;;
4698;SDS011;33708;49.466;11.176;2023-02-01T04:16:30;15.23;;;7.83;;
4698;SDS011;33708;49.466;11.176;2023-02-01T04:18:56;15.30;;;7.60;;
4698;SDS011;33708;49.466;11.176;2023-02-01T04:21:23;14.50;;;7.20;;
4698;SDS011;33708;49.466;11.176;2023-02-01T04:23:50;15.27;;;6.83;;
4698;SDS011;33708;49.466;11.176;2023-02-01T04:26:15;14.60;;;7.17;;
4698;SDS011;33708;49.466;11.176;2023-02-01T04:28:41;21.77;;;7.50;;
4698;SDS011;33708;49.466;11.176;2023-02-01T04:31:07;15.67;;;7.43;;
4698;SDS011;33708;49.466;11.176;2023-02-01T04:33:33;20.57;;;8.37;;
4698;SDS011;33708;49.466;11.176;2023-02-01T04:35:59;15.70;;;7.47;;
4698;SDS011;33708;49.466;11.176;2023-02-01T04:38:24;17.20;;;7.00;;
4698;SDS011;33708;49.466;11.176;2023-02-01T04:40:50;16.40;;;7.43;;
4698;SDS011;33708;49.466;11.176;2023-02-01T04:43:16;16.10;;;7.40;;
4698;SDS011;33708;49.466;11.176;2023-02-01T04:45:46;15.87;;;7.83;;
4698;SDS011;33708;49.466;11.176;2023-02-01T04:48:13;14.87;;;8.00;;
4698;SDS011;33708;49.466;11.176;2023-02-01T04:50:40;16.50;;;8.47;;
4698;SDS011;33708;49.466;11.176;2023-02-01T04:53:05;15.87;;;8.60;;
4698;SDS011;33708;49.466;11.176;2023-02-01T04:55:31;16.30;;;7.93;;
4698;SDS011;33708;49.466;11.176;2023-02-01T04:57:56;15.70;;;8.50;;
4698;SDS011;33708;49.466;11.176;2023-02-01T05:00:22;17.40;;;8.40;;
4698;SDS011;33708;49.466;11.176;2023-02-01T05:02:48;17.10;;;8.83;;
4698;SDS011;33708;49.466;11.176;2023-02-01T05:05:13;15.63;;;7.97;;
4698;SDS011;33708;49.466;11.176;2023-02-01T05:07:39;15.87;;;8.07;;
4698;SDS011;33708;49.466;11.176;2023-02-01T05:10:05;16.60;;;8.20;;
4698;SDS011;33708;49.466;11.176;2023-02-01T05:12:30;15.00;;;7.10;;
4698;SDS011;33708;49.466;11.176;2023-02-01T05:15:15;15.60;;;7.20;;
4698;SDS011;33708;49.466;11.176;2023-02-01T05:17:40;15.90;;;7.77;;
4698;SDS011;33708;49.466;11.176;2023-02-01T05:20:07;16.67;;;7.60;;
4698;SDS011;33708;49.466;11.176;2023-02-01T05:22:35;19.27;;;7.13;;
4698;SDS011;33708;49.466;11.176;2023-02-01T05:25:01;14.20;;;7.43;;
4698;SDS011;33708;49.466;11.176;2023-02-01T05:27:28;17.57;;;8.40;;
4698;SDS011;33708;49.466;11.176;2023-02-01T05:29:55;17.00;;;8.47;;
4698;SDS011;33708;49.466;11.176;2023-02-01T05:32:21;15.43;;;7.27;;
4698;SDS011;33708;49.466;11.176;2023-02-01T05:34:46;14.50;;;5.93;;
4698;SDS011;33708;49.466;11.176;2023-02-01T05:37:12;14.13;;;4.77;;
4698;SDS011;33708;49.466;11.176;2023-02-01T05:39:37;16.63;;;4.83;;
4698;SDS011;33708;49.466;11.176;2023-02-01T05:42:03;12.40;;;4.67;;
4698;SDS011;33708;49.466;11.176;2023-02-01T05:44:29;13.13;;;4.20;;
4698;SDS011;33708;49.466;11.176;2023-02-01T05:46:54;12.97;;;4.83;;
4698;SDS011;33708;49.466;11.176;2023-02-01T05:49:20;13.17;;;4.87;;
4698;SDS011;33708;49.466;11.176;2023-02-01T05:51:45;12.33;;;5.30;;
4698;SDS011;33708;49.466;11.176;2023-02-01T05:54:11;13.17;;;6.00;;
4698;SDS011;33708;49.466;11.176;2023-02-01T05:56:37;15.53;;;7.13;;
4698;SDS011;33708;49.466;11.176;2023-02-01T05:59:02;15.27;;;7.10;;
4698;SDS011;33708;49.466;11.176;2023-02-01T06:01:28;16.50;;;7.10;;
4698;SDS011;33708;49.466;11.176;2023-02-01T06:03:53;15.63;;;7.40;;
4698;SDS011;33708;49.466;11.176;2023-02-01T06:06:19;20.83;;;6.33;;
4698;SDS011;33708;49.466;11.176;2023-02-01T06:08:45;14.03;;;5.40;;
4698;SDS011;33708;49.466;11.176;2023-02-01T06:11:11;12.37;;;4.33;;
4698;SDS011;33708;49.466;11.176;2023-02-01T06:13:38;12.40;;;4.70;;
4698;SDS011;33708;49.466;11.176;2023-02-01T06:16:04;13.43;;;4.30;;
4698;SDS011;33708;49.466;11.176;2023-02-01T06:18:32;10.70;;;4.00;;
4698;SDS011;33708;49.466;11.176;2023-02-01T06:20:58;12.00;;;3.67;;
4698;SDS011;33708;49.466;11.176;2023-02-01T06:23:25;9.43;;;2.90;;
4698;SDS011;33708;49.466;11.176;2023-02-01T06:25:52;9.60;;;2.80;;
4698;SDS011;33708;49.466;11.176;2023-02-01T06:28:23;9.00;;;3.07;;
4698;SDS011;33708;49.466;11.176;2023-02-01T06:30:49;11.63;;;3.00;;
4698;SDS011;33708;49.466;11.176;2023-02-01T06:33:14;9.47;;;3.27;;
4698;SDS011;33708;49.466;11.176;2023-02-01T06:35:43;9.70;;;3.20;;
4698;SDS011;33708;49.466;11.176;2023-02-01T06:38:09;10.13;;;3.57;;
4698;SDS011;33708;49.466;11.176;2023-02-01T06:40:36;11.50;;;4.40;;
4698;SDS011;33708;49.466;11.176;2023-02-01T06:43:02;13.03;;;4.43;;
4698;SDS011;33708;49.466;11.176;2023-02-01T06:45:28;12.73;;;4.50;;
4698;SDS011;33708;49.466;11.176;2023-02-01T06:47:53;11.50;;;3.70;;
4698;SDS011;33708;49.466;11.176;2023-02-01T06:50:19;9.83;;;4.40;;
4698;SDS011;33708;49.466;11.176;2023-02-01T06:52:45;10.40;;;4.37;;
4698;SDS011;33708;49.466;11.176;2023-02-01T06:55:10;13.63;;;4.47;;
4698;SDS011;33708;49.466;11.176;2023-02-01T06:57:36;10.23;;;4.33;;
4698;SDS011;33708;49.466;11.176;2023-02-01T07:00:02;10.90;;;4.33;;
4698;SDS011;33708;49.466;11.176;2023-02-01T07:02:29;11.43;;;4.10;;
4698;SDS011;33708;49.466;11.176;2023-02-01T07:04:54;11.50;;;4.37;;
4698;SDS011;33708;49.466;11.176;2023-02-01T07:07:20;9.40;;;3.30;;
4698;SDS011;33708;49.466;11.176;2023-02-01T07:09:47;9.90;;;3.70;;
4698;SDS011;33708;49.466;11.176;2023-02-01T07:12:16;11.70;;;3.77;;
4698;SDS011;33708;49.466;11.176;2023-02-01T07:14:42;9.13;;;3.10;;
4698;SDS011;33708;49.466;11.176;2023-02-01T07:17:07;9.73;;;3.10;;
4698;SDS011;33708;49.466;11.176;2023-02-01T07:19:33;11.93;;;3.80;;
4698;SDS011;33708;49.466;11.176;2023-02-01T07:21:59;10.00;;;3.50;;
4698;SDS011;33708;49.466;11.176;2023-02-01T07:24:25;9.70;;;3.40;;
4698;SDS011;33708;49.466;11.176;2023-02-01T07:26:50;10.33;;;3.70;;
4698;SDS011;33708;49.466;11.176;2023-02-01T07:29:17;8.40;;;2.90;;
4698;SDS011;33708;49.466;11.176;2023-02-01T07:31:43;9.30;;;3.30;;
4698;SDS011;33708;49.466;11.176;2023-02-01T07:34:08;10.13;;;3.70;;
4698;SDS011;33708;49.466;11.176;2023-02-01T07:36:34;10.80;;;3.83;;
4698;SDS011;33708;49.466;11.176;2023-02-01T07:39:01;9.93;;;3.93;;
4698;SDS011;33708;49.466;11.176;2023-02-01T07:41:28;9.17;;;3.43;;
4698;SDS011;33708;49.466;11.176;2023-02-01T07:43:53;10.30;;;3.60;;
4698;SDS011;33708;49.466;11.176;2023-02-01T07:46:20;10.63;;;3.93;;
4698;SDS011;33708;49.466;11.176;2023-02-01T07:48:45;11.17;;;4.40;;
4698;SDS011;33708;49.466;11.176;2023-02-01T07:51:12;12.27;;;4.10;;
4698;SDS011;33708;49.466;11.176;2023-02-01T07:53:39;10.57;;;3.63;;
4698;SDS011;33708;49.466;11.176;2023-02-01T07:58:41;11.97;;;4.70;;
4698;SDS011;33708;49.466;11.176;2023-02-01T08:01:18;12.97;;;4.70;;
4698;SDS011;33708;49.466;11.176;2023-02-01T08:03:50;15.57;;;4.27;;
4698;SDS011;33708;49.466;11.176;2023-02-01T08:06:24;10.07;;;3.73;;
4698;SDS011;33708;49.466;11.176;2023-02-01T08:08:50;10.53;;;3.57;;
4698;SDS011;33708;49.466;11.176;2023-02-01T08:11:17;11.60;;;3.83;;
4698;SDS011;33708;49.466;11.176;2023-02-01T08:13:44;16.53;;;3.27;;
4698;SDS011;33708;49.466;11.176;2023-02-01T08:16:10;9.33;;;3.60;;
4698;SDS011;33708;49.466;11.176;2023-02-01T08:18:37;10.50;;;3.20;;
4698;SDS011;33708;49.466;11.176;2023-02-01T08:21:04;10.47;;;3.40;;
4698;SDS011;33708;49.466;11.176;2023-02-01T08:23:35;10.93;;;3.33;;
4698;SDS011;33708;49.466;11.176;2023-02-01T08:26:12;12.70;;;3.30;;
4698;SDS011;33708;49.466;11.176;2023-02-01T08:28:50;13.67;;;3.40;;
4698;SDS011;33708;49.466;11.176;2023-02-01T08:31:19;12.90;;;3.67;;
4698;SDS011;33708;49.466;11.176;2023-02-01T08:33:50;10.40;;;3.30;;
4698;SDS011;33708;49.466;11.176;2023-02-01T08:36:17;13.03;;;3.50;;
4698;SDS011;33708;49.466;11.176;2023-02-01T08:38:44;12.17;;;3.53;;
4698;SDS011;33708;49.466;11.176;2023-02-01T08:41:11;13.53;;;3.07;;
4698;SDS011;33708;49.466;11.176;2023-02-01T08:43:39;14.00;;;3.50;;
4698;SDS011;33708;49.466;11.176;2023-02-01T08:46:05;16.10;;;3.23;;
4698;SDS011;33708;49.466;11.176;2023-02-01T08:48:31;12.90;;;3.13;;
4698;SDS011;33708;49.466;11.176;2023-02-01T08:51:00;11.03;;;3.13;;
4698;SDS011;33708;49.466;11.176;2023-02-01T08:53:30;17.40;;;3.23;;
4698;SDS011;33708;49.466;11.176;2023-02-01T08:55:56;13.73;;;2.60;;
4698;SDS011;33708;49.466;11.176;2023-02-01T08:58:22;13.83;;;2.87;;
4698;SDS011;33708;49.466;11.176;2023-02-01T09:00:48;13.57;;;4.07;;
4698;SDS011;33708;49.466;11.176;2023-02-01T09:03:14;15.33;;;3.27;;
4698;SDS011;33708;49.466;11.176;2023-02-01T09:05:40;12.90;;;3.23;;
4698;SDS011;33708;49.466;11.176;2023-02-01T09:08:06;11.53;;;2.73;;
4698;SDS011;33708;49.466;11.176;2023-02-01T09:10:33;15.60;;;3.67;;
4698;SDS011;33708;49.466;11.176;2023-02-01T09:12:59;16.67;;;3.17;;
4698;SDS011;33708;49.466;11.176;2023-02-01T09:15:25;15.33;;;3.40;;
4698;SDS011;33708;49.466;11.176;2023-02-01T09:17:51;14.97;;;3.20;;
4698;SDS011;33708;49.466;11.176;2023-02-01T09:20:16;14.90;;;4.23;;
4698;SDS011;33708;49.466;11.176;2023-02-01T09:22:43;12.90;;;3.37;;
4698;SDS011;33708;49.466;11.176;2023-02-01T09:25:09;15.37;;;3.43;;
4698;SDS011;33708;49.466;11.176;2023-02-01T09:27:34;15.27;;;3.70;;
4698;SDS011;33708;49.466;11.176;2023-02-01T09:30:00;16.63;;;3.93;;
4698;SDS011;33708;49.466;11.176;2023-02-01T09:32:26;15.53;;;3.67;;
4698;SDS011;33708;49.466;11.176;2023-02-01T09:34:52;12.63;;;2.53;;
4698;SDS011;33708;49.466;11.176;2023-02-01T09:37:18;11.27;;;2.60;;
4698;SDS011;33708;49.466;11.176;2023-02-01T09:39:45;12.70;;;2.60;;
4698;SDS011;33708;49.466;11.176;2023-02-01T09:42:14;15.20;;;2.77;;
4698;SDS011;33708;49.466;11.176;2023-02-01T09:47:45;14.97;;;2.40;;
4698;SDS011;33708;49.466;11.176;2023-02-01T09:50:15;14.70;;;2.10;;
4698;SDS011;33708;49.466;11.176;2023-02-01T09:52:54;15.90;;;2.17;;
4698;SDS011;33708;49.466;11.176;2023-02-01T09:55:32;13.30;;;2.40;;
4698;SDS011;33708;49.466;11.176;2023-02-01T10:00:52;13.40;;;2.00;;
4698;SDS011;33708;49.466;11.176;2023-02-01T10:03:26;19.17;;;2.70;;
4698;SDS011;33708;49.466;11.176;2023-02-01T10:17:26;14.30;;;2.80;;
4698;SDS011;33708;49.466;11.176;2023-02-01T10:22:43;15.30;;;2.67;;
4698;SDS011;33708;49.466;11.176;2023-02-01T10:27:55;12.33;;;2.63;;
4698;SDS011;33708;49.466;11.176;2023-02-01T10:30:23;13.13;;;3.03;;
4698;SDS011;33708;49.466;11.176;2023-02-01T10:32:57;12.57;;;2.53;;
4698;SDS011;33708;49.466;11.176;2023-02-01T10:35:37;11.00;;;2.70;;
4698;SDS011;33708;49.466;11.176;2023-02-01T10:38:03;15.70;;;4.20;;
4698;SDS011;33708;49.466;11.176;2023-02-01T10:40:40;13.33;;;3.23;;
4698;SDS011;33708;49.466;11.176;2023-02-01T10:43:07;15.77;;;3.13;;
4698;SDS011;33708;49.466;11.176;2023-02-01T10:45:34;14.77;;;3.93;;
4698;SDS011;33708;49.466;11.176;2023-02-01T10:48:02;21.53;;;4.00;;
4698;SDS011;33708;49.466;11.176;2023-02-01T10:55:55;18.17;;;4.67;;
4698;SDS011;33708;49.466;11.176;2023-02-01T10:58:26;16.37;;;3.43;;
4698;SDS011;33708;49.466;11.176;2023-02-01T11:01:04;15.50;;;4.30;;
4698;SDS011;33708;49.466;11.176;2023-02-01T11:06:03;20.50;;;4.50;;
4698;SDS011;33708;49.466;11.176;2023-02-01T11:08:42;21.50;;;4.23;;
4698;SDS011;33708;49.466;11.176;2023-02-01T11:11:10;18.00;;;4.00;;
4698;SDS011;33708;49.466;11.176;2023-02-01T11:13:37;15.10;;;4.40;;
4698;SDS011;33708;49.466;11.176;2023-02-01T11:16:04;16.13;;;4.30;;
4698;SDS011;33708;49.466;11.176;2023-02-01T11:18:33;15.37;;;3.93;;
4698;SDS011;33708;49.466;11.176;2023-02-01T11:21:01;14.03;;;3.83;;
4698;SDS011;33708;49.466;11.176;2023-02-01T11:23:28;15.13;;;4.33;;
4698;SDS011;33708;49.466;11.176;2023-02-01T11:26:40;16.57;;;4.20;;
4698;SDS011;33708;49.466;11.176;2023-02-01T11:29:01;20.80;;;4.53;;
4698;SDS011;33708;49.466;11.176;2023-02-01T11:31:30;17.20;;;5.20;;
4698;SDS011;33708;49.466;11.176;2023-02-01T11:33:59;15.27;;;4.20;;
4698;SDS011;33708;49.466;11.176;2023-02-01T11:36:40;19.47;;;4.80;;
4698;SDS011;33708;49.466;11.176;2023-02-01T11:39:08;20.77;;;5.07;;
4698;SDS011;33708;49.466;11.176;2023-02-01T11:49:57;17.50;;;3.13;;
4698;SDS011;33708;49.466;11.176;2023-02-01T11:55:14;14.40;;;3.50;;
4698;SDS011;33708;49.466;11.176;2023-02-01T12:25:54;18.93;;;3.83;;
4698;SDS011;33708;49.466;11.176;2023-02-01T12:33:50;22.30;;;4.43;;
4698;SDS011;33708;49.466;11.176;2023-02-01T12:36:39;17.70;;;3.77;;
4698;SDS011;33708;49.466;11.176;2023-02-01T12:39:21;14.03;;;3.23;;
4698;SDS011;33708;49.466;11.176;2023-02-01T12:44:54;19.07;;;3.77;;
4698;SDS011;33708;49.466;11.176;2023-02-01T12:47:41;17.37;;;3.60;;
4698;SDS011;33708;49.466;11.176;2023-02-01T12:50:13;16.40;;;4.07;;
4698;SDS011;33708;49.466;11.176;2023-02-01T12:52:50;17.47;;;3.83;;
4698;SDS011;33708;49.466;11.176;2023-02-01T12:57:52;18.10;;;4.27;;
4698;SDS011;33708;49.466;11.176;2023-02-01T13:00:32;16.30;;;3.77;;
4698;SDS011;33708;49.466;11.176;2023-02-01T13:06:11;18.40;;;4.83;;
4698;SDS011;33708;49.466;11.176;2023-02-01T13:11:31;20.53;;;4.20;;
4698;SDS011;33708;49.466;11.176;2023-02-01T13:16:42;14.50;;;3.10;;
4698;SDS011;33708;49.466;11.176;2023-02-01T13:19:17;17.73;;;4.37;;
4698;SDS011;33708;49.466;11.176;2023-02-01T13:21:56;15.33;;;4.20;;
4698;SDS011;33708;49.466;11.176;2023-02-01T13:26:55;15.80;;;3.57;;
4698;SDS011;33708;49.466;11.176;2023-02-01T13:29:21;27.37;;;5.00;;
4698;SDS011;33708;49.466;11.176;2023-02-01T13:34:46;19.77;;;4.37;;
4698;SDS011;33708;49.466;11.176;2023-02-01T13:42:55;17.97;;;3.90;;
4698;SDS011;33708;49.466;11.176;2023-02-01T13:45:25;17.43;;;4.10;;
4698;SDS011;33708;49.466;11.176;2023-02-01T13:47:55;19.63;;;4.10;;
4698;SDS011;33708;49.466;11.176;2023-02-01T13:50:27;20.43;;;4.03;;
4698;SDS011;33708;49.466;11.176;2023-02-01T13:56:38;20.50;;;4.10;;
4698;SDS011;33708;49.466;11.176;2023-02-01T13:58:45;18.90;;;3.70;;
4698;SDS011;33708;49.466;11.176;2023-02-01T14:11:39;15.97;;;3.47;;
4698;SDS011;33708;49.466;11.176;2023-02-01T14:21:50;14.37;;;3.63;;
4698;SDS011;33708;49.466;11.176;2023-02-01T14:26:47;22.57;;;3.70;;
4698;SDS011;33708;49.466;11.176;2023-02-01T14:44:46;19.80;;;4.70;;
4698;SDS011;33708;49.466;11.176;2023-02-01T14:52:57;23.07;;;5.20;;
4698;SDS011;33708;49.466;11.176;2023-02-01T14:55:40;20.53;;;4.43;;
4698;SDS011;33708;49.466;11.176;2023-02-01T15:01:04;17.90;;;3.47;;
4698;SDS011;33708;49.466;11.176;2023-02-01T15:11:52;19.90;;;3.70;;
4698;SDS011;33708;49.466;11.176;2023-02-01T15:14:23;16.33;;;3.80;;
4698;SDS011;33708;49.466;11.176;2023-02-01T15:16:51;15.13;;;4.00;;
4698;SDS011;33708;49.466;11.176;2023-02-01T15:19:20;22.73;;;4.33;;
4698;SDS011;33708;49.466;11.176;2023-02-01T15:21:49;23.80;;;4.60;;
4698;SDS011;33708;49.466;11.176;2023-02-01T15:24:23;21.23;;;4.73;;
4698;SDS011;33708;49.466;11.176;2023-02-01T15:26:51;22.33;;;4.83;;
4698;SDS011;33708;49.466;11.176;2023-02-01T15:29:18;25.83;;;4.00;;
4698;SDS011;33708;49.466;11.176;2023-02-01T15:31:47;21.23;;;4.30;;
4698;SDS011;33708;49.466;11.176;2023-02-01T15:34:14;19.30;;;3.97;;
4698;SDS011;33708;49.466;11.176;2023-02-01T15:36:41;22.00;;;3.70;;
4698;SDS011;33708;49.466;11.176;2023-02-01T15:39:26;25.23;;;4.07;;
4698;SDS011;33708;49.466;11.176;2023-02-01T15:41:55;24.20;;;3.60;;
4698;SDS011;33708;49.466;11.176;2023-02-01T15:44:39;21.33;;;4.43;;
4698;SDS011;33708;49.466;11.176;2023-02-01T15:47:17;25.63;;;4.27;;
4698;SDS011;33708;49.466;11.176;2023-02-01T15:49:50;18.90;;;3.90;;
4698;SDS011;33708;49.466;11.176;2023-02-01T15:52:37;20.07;;;4.57;;
4698;SDS011;33708;49.466;11.176;2023-02-01T15:55:07;18.63;;;4.13;;
4698;SDS011;33708;49.466;11.176;2023-02-01T15:57:43;20.50;;;4.03;;
4698;SDS011;33708;49.466;11.176;2023-02-01T16:02:59;20.00;;;3.87;;
4698;SDS011;33708;49.466;11.176;2023-02-01T16:08:09;23.63;;;3.83;;
4698;SDS011;33708;49.466;11.176;2023-02-01T16:10:40;19.07;;;3.20;;
4698;SDS011;33708;49.466;11.176;2023-02-01T16:13:07;17.37;;;4.70;;
4698;SDS011;33708;49.466;11.176;2023-02-01T16:15:33;27.87;;;4.87;;
4698;SDS011;33708;49.466;11.176;2023-02-01T16:17:59;19.00;;;3.47;;
4698;SDS011;33708;49.466;11.176;2023-02-01T16:20:24;21.57;;;3.50;;
4698;SDS011;33708;49.466;11.176;2023-02-01T16:22:50;22.23;;;4.10;;
4698;SDS011;33708;49.466;11.176;2023-02-01T16:25:16;26.33;;;4.30;;
4698;SDS011;33708;49.466;11.176;2023-02-01T16:27:41;15.57;;;3.60;;
4698;SDS011;33708;49.466;11.176;2023-02-01T16:30:07;22.03;;;3.77;;
4698;SDS011;33708;49.466;11.176;2023-02-01T16:32:35;14.93;;;3.77;;
4698;SDS011;33708;49.466;11.176;2023-02-01T16:35:05;18.40;;;3.20;;
4698;SDS011;33708;49.466;11.176;2023-02-01T16:37:47;20.83;;;4.23;;
4698;SDS011;33708;49.466;11.176;2023-02-01T16:40:14;18.80;;;3.57;;
4698;SDS011;33708;49.466;11.176;2023-02-01T16:42:41;20.23;;;3.87;;
4698;SDS011;33708;49.466;11.176;2023-02-01T16:45:07;21.20;;;3.50;;
4698;SDS011;33708;49.466;11.176;2023-02-01T16:47:33;17.40;;;3.50;;
4698;SDS011;33708;49.466;11.176;2023-02-01T16:50:01;18.10;;;3.60;;
4698;SDS011;33708;49.466;11.176;2023-02-01T16:52:26;29.60;;;3.63;;
4698;SDS011;33708;49.466;11.176;2023-02-01T16:54:52;19.90;;;3.40;;
4698;SDS011;33708;49.466;11.176;2023-02-01T16:57:18;20.63;;;3.63;;
4698;SDS011;33708;49.466;11.176;2023-02-01T16:59:47;14.17;;;3.07;;
4698;SDS011;33708;49.466;11.176;2023-02-01T17:02:14;15.23;;;3.47;;
4698;SDS011;33708;49.466;11.176;2023-02-01T17:04:41;21.63;;;3.77;;
4698;SDS011;33708;49.466;11.176;2023-02-01T17:07:17;15.23;;;3.37;;
4698;SDS011;33708;49.466;11.176;2023-02-01T17:09:43;16.37;;;3.47;;
4698;SDS011;33708;49.466;11.176;2023-02-01T17:12:23;18.17;;;3.60;;
4698;SDS011;33708;49.466;11.176;2023-02-01T17:14:51;20.70;;;3.40;;
4698;SDS011;33708;49.466;11.176;2023-02-01T17:17:17;20.03;;;3.60;;
4698;SDS011;33708;49.466;11.176;2023-02-01T17:19:45;25.67;;;3.90;;
4698;SDS011;33708;49.466;11.176;2023-02-01T17:22:16;20.70;;;4.90;;
4698;SDS011;33708;49.466;11.176;2023-02-01T17:24:42;17.57;;;3.63;;
4698;SDS011;33708;49.466;11.176;2023-02-01T17:27:08;18.00;;;3.60;;
4698;SDS011;33708;49.466;11.176;2023-02-01T17:29:34;17.33;;;3.20;;
4698;SDS011;33708;49.466;11.176;2023-02-01T17:31:59;17.20;;;3.50;;
4698;SDS011;33708;49.466;11.176;2023-02-01T17:34:26;24.40;;;3.70;;
4698;SDS011;33708;49.466;11.176;2023-02-01T17:36:52;22.47;;;4.53;;
4698;SDS011;33708;49.466;11.176;2023-02-01T17:39:17;14.47;;;3.57;;
4698;SDS011;33708;49.466;11.176;2023-02-01T17:42:03;19.40;;;3.50;;
4698;SDS011;33708;49.466;11.176;2023-02-01T17:44:30;21.53;;;3.77;;
4698;SDS011;33708;49.466;11.176;2023-02-01T17:46:55;20.90;;;4.10;;
4698;SDS011;33708;49.466;11.176;2023-02-01T17:49:23;17.00;;;3.37;;
4698;SDS011;33708;49.466;11.176;2023-02-01T17:51:49;23.63;;;4.37;;
4698;SDS011;33708;49.466;11.176;2023-02-01T17:54:15;19.53;;;3.60;;
4698;SDS011;33708;49.466;11.176;2023-02-01T17:56:44;20.00;;;3.77;;
4698;SDS011;33708;49.466;11.176;2023-02-01T17:59:10;19.83;;;5.00;;
4698;SDS011;33708;49.466;11.176;2023-02-01T18:01:36;26.77;;;4.27;;